Impacts METAR Board INFO
IDs:

KSLC - Salt Lake City Intl, UT, US

Updated at: 0339 UTC 19 Feb 2018
Potential Impact None Slight Moderate High
Time18/15Z 18/16Z 18/17Z 18/18Z 18/19Z 18/20Z 18/21Z 18/22Z 18/23Z 19/00Z 19/01Z 19/02Z 19/03Z
VIS6 6 7 10 10 10 10 10 10 4 2 1.25 1
CIG95 95 95 100 90 100 38 28 30 9 8 21 13
CoverOVCOVCOVCBKNOVCOVCOVCOVCOVCOVCOVCOVCOVC
FltCatVFRVFRVFRVFRVFRVFRVFRMVFRMVFRIFRIFRIFRIFR
WXBLDUBLDU-----------RA-RA-SN BR-SN BR-SN BR-SN BR
WDir16017017035034032034035010360350360360
WSpd23 20 20 14 19 23 21 14 12 9 10 8 6
WGst32 33 27 28 -- 28 -- -- -- -- -- -- --
Raw hourly METARs
KSLC 181454Z 16023G32KT 6SM BLDU OVC095 11/M10 A2958 RMK AO2 PK WND 16034/1409 SLP988 T01111100 56013
KSLC 181554Z 17020G33KT 6SM BLDU BKN095 OVC120 11/M09 A2957 RMK AO2 PK WND 17033/1546 SLP983 T01111094
KSLC 181654Z 17020G27KT 7SM BKN095 OVC120 12/M09 A2954 RMK AO2 PK WND 16034/1633 SLP975 VIRGA DSNT NW-N BLDU ALQDS T01171094
KSLC 181754Z 35014G28KT 10SM BKN100 BKN120 09/00 A2956 RMK AO2 PK WND 16037/1658 WSHFT 1738 SLP984 VIRGA DSNT W-N T00890000 10128 20089 55007
KSLC 181854Z 34019KT 10SM FEW025 BKN090 OVC120 09/01 A2954 RMK AO2 PK WND 36027/1803 WSHFT 1741 SLP977 VIRGA DSNT W-N T00940011
KSLC 181954Z 32023G28KT 10SM FEW025 SCT060 OVC100 09/02 A2954 RMK AO2 PK WND 32028/1954 SLP976 VIRGA DSNT W-N T00890017
KSLC 182054Z 34021KT 10SM FEW025 BKN038 OVC095 07/00 A2956 RMK AO2 PK WND 33029/2004 SLP984 VIRGA N T00720000 55001
KSLC 182154Z 35014KT 10SM -RA FEW020 BKN028 OVC038 06/M01 A2954 RMK AO2 RAB46 SLP982 P0000 T00611006
KSLC 182254Z 01012KT 10SM -RA SCT015 BKN030 OVC035 04/00 A2955 RMK AO2 SLP986 P0000 T00440000
KSLC 190003Z 36009KT 4SM -SN BR BKN009 BKN013 OVC022 03/01 A2955 RMK AO2 RAE2356SNB2356 P0000 T00330011
KSLC 190102Z 35010KT 2SM -SN BR FEW004 BKN008 OVC024 02/01 A2954 RMK AO2 P0000 T00220006
KSLC 190202Z 36008KT 1 1/4SM R16L/5000VP6000FT -SN BR OVC021 02/01 A2955 RMK AO2 P0000 T00170006
KSLC 190303Z 36006KT 1SM R16L/6000VP6000FT -SN BR SCT004 OVC013 02/00 A2954 RMK AO2 TWR VIS 1 3/4 P0001 T00170000